Lower Post, Canada
Current Conditions -  °F | °C
As of 3:00 AM on Sunday 21 Dec 2014 (Local Time) from CYQH Reporting Station
Light Snow Light Snow  
Wind Chill:   Ceiling: 800
Heat Index:   Visibility: 8mi
Dew Point:   Wind: 2mph
Humidity: 85%   Direction: 170°S
Pressure: 29.31"   Gusts: NA
Location:  59.92°N, 128.5°W
Report Text: CYQH 211100Z 17002KT 8SM -SN OVC008 M13/M15 A2931 RMK ST8 SLP981
Loading
Personal Weather Stations






























Interactive Weather Map New forecast layout! Learn more

10-Day Weather Forecast

Advertisements
Track Severe Weather on mobile